Time;durP1;ratioP1;P1;durP2;ratioP2;P2;SDS_P1;SDS_P2;PMS_P1;PMS_P2;Temp;Humidity;BMP_temperature;BMP_pressure;BME280_temperature;BME280_humidity;BME280_pressure;Samples;Min_cycle;Max_cycle;Signal;HPM_P1;HPM_P2
2022/08/03 00:01:32;;;;;;;10.13;4.75;;;19.40;92.00;;;;;;5109757;28;20044;-75
2022/08/03 00:03:58;;;;;;;9.45;5.45;;;19.40;92.20;;;;;;5109879;28;20090;-75
2022/08/03 00:06:24;;;;;;;8.25;3.78;;;19.40;92.00;;;;;;5075789;28;20084;-77
2022/08/03 00:08:50;;;;;;;8.65;4.00;;;19.40;91.90;;;;;;5109832;28;20042;-76
2022/08/03 00:11:16;;;;;;;10.43;4.63;;;19.40;91.30;;;;;;5109871;28;20036;-76
2022/08/03 00:13:41;;;;;;;8.77;4.28;;;19.50;90.90;;;;;;5075826;28;20040;-76
2022/08/03 00:16:07;;;;;;;11.65;4.80;;;19.40;91.20;;;;;;5075881;28;20039;-78
2022/08/03 00:18:33;;;;;;;9.73;4.10;;;19.40;91.80;;;;;;5075836;28;20583;-74
2022/08/03 00:20:59;;;;;;;10.57;3.97;;;19.40;91.60;;;;;;5075304;28;20123;-73
2022/08/03 00:23:24;;;;;;;8.52;4.57;;;19.40;91.40;;;;;;5109699;28;20052;-76
2022/08/03 00:25:50;;;;;;;11.45;4.65;;;19.40;91.20;;;;;;5109386;28;20036;-76
2022/08/03 00:28:16;;;;;;;9.05;4.90;;;19.40;91.40;;;;;;5092698;28;20028;-74
2022/08/03 00:30:41;;;;;;;7.80;4.55;;;19.40;91.60;;;;;;5075403;28;20078;-78
2022/08/03 00:33:09;;;;;;;11.35;4.60;;;19.40;92.20;;;;;;5109344;28;20047;-75
2022/08/03 00:35:34;;;;;;;11.52;5.07;;;19.30;91.80;;;;;;5108977;28;20048;-77
2022/08/03 00:38:00;;;;;;;14.00;5.82;;;19.30;92.20;;;;;;5109559;28;20052;-74
2022/08/03 00:40:27;;;;;;;10.90;4.78;;;19.20;92.20;;;;;;5109156;28;20519;-74
2022/08/03 00:43:01;;;;;;;8.98;4.55;;;19.20;92.30;;;;;;5109159;28;20119;-73
2022/08/03 00:45:32;;;;;;;9.93;4.38;;;19.20;92.00;;;;;;5109366;28;20472;-78
2022/08/03 00:47:59;;;;;;;12.63;5.32;;;19.20;91.70;;;;;;5109162;28;20036;-77
2022/08/03 00:50:27;;;;;;;11.90;6.07;;;19.20;92.10;;;;;;5109075;28;20047;-76
2022/08/03 00:52:54;;;;;;;13.93;5.45;;;19.20;92.10;;;;;;5109286;28;20069;-73
2022/08/03 00:55:20;;;;;;;9.80;5.10;;;19.20;92.20;;;;;;5075150;28;20044;-73
2022/08/03 00:57:47;;;;;;;13.70;4.85;;;19.20;92.30;;;;;;5109105;28;20441;-74
2022/08/03 01:00:17;;;;;;;8.70;4.60;;;19.20;92.10;;;;;;5075256;28;20087;-75
2022/08/03 01:02:43;;;;;;;9.48;4.72;;;19.20;92.80;;;;;;5109061;28;20519;-73
2022/08/03 01:05:09;;;;;;;10.40;4.35;;;19.20;92.70;;;;;;5108745;28;20044;-74
2022/08/03 01:07:47;;;;;;;11.50;5.57;;;19.20;93.10;;;;;;5109127;28;20032;-74
2022/08/03 01:10:51;;;;;;;11.23;4.25;;;19.20;93.00;;;;;;5109090;28;20464;-74
2022/08/03 01:13:42;;;;;;;9.13;4.82;;;19.20;93.20;;;;;;5109248;28;20052;-75
2022/08/03 01:16:18;;;;;;;13.70;4.95;;;19.20;92.80;;;;;;5108745;28;20101;-76
2022/08/03 01:18:58;;;;;;;11.23;4.90;;;19.20;93.20;;;;;;5091720;28;20126;-74
2022/08/03 01:21:50;;;;;;;10.43;4.40;;;19.20;93.00;;;;;;5108916;28;20131;-76
2022/08/03 01:24:15;;;;;;;10.93;5.15;;;19.10;93.40;;;;;;5108722;28;20055;-76
2022/08/03 01:26:44;;;;;;;11.50;4.45;;;19.10;93.10;;;;;;5074789;28;20036;-74
2022/08/03 01:29:31;;;;;;;11.43;3.88;;;19.10;92.70;;;;;;5108546;28;20044;-78
2022/08/03 01:32:20;;;;;;;11.38;4.35;;;19.20;93.00;;;;;;5109492;28;20066;-76
2022/08/03 01:34:51;;;;;;;10.80;4.13;;;19.10;93.20;;;;;;5112572;28;20141;-78
2022/08/03 01:37:31;;;;;;;14.00;4.22;;;19.20;92.70;;;;;;5112707;28;20052;-76
2022/08/03 01:40:00;;;;;;;11.10;4.40;;;19.20;92.90;;;;;;5078769;28;20077;-78
2022/08/03 01:42:27;;;;;;;10.75;4.13;;;19.10;92.70;;;;;;5078784;28;20079;-76
2022/08/03 01:44:56;;;;;;;10.23;4.43;;;19.20;92.70;;;;;;5095772;28;20062;-75
2022/08/03 01:47:24;;;;;;;10.52;4.30;;;19.20;92.40;;;;;;5095493;28;20044;-80
2022/08/03 01:49:52;;;;;;;11.75;5.00;;;19.20;92.50;;;;;;5112544;28;20051;-75
2022/08/03 01:52:19;;;;;;;11.25;5.03;;;19.10;92.70;;;;;;5112441;28;20040;-75
2022/08/03 01:54:48;;;;;;;13.02;5.07;;;19.20;93.20;;;;;;5078656;28;20101;-78
2022/08/03 01:57:14;;;;;;;13.02;5.60;;;19.10;93.00;;;;;;5112354;28;20044;-77
2022/08/03 01:59:42;;;;;;;18.23;4.53;;;19.20;92.90;;;;;;5112320;28;20504;-74
2022/08/03 02:02:13;;;;;;;9.27;4.82;;;19.20;92.70;;;;;;5095166;28;20040;-76
2022/08/03 02:04:41;;;;;;;13.35;4.93;;;19.10;92.60;;;;;;5112074;28;20036;-75
2022/08/03 02:07:09;;;;;;;11.68;4.45;;;19.00;92.50;;;;;;5111744;28;20136;-78
2022/08/03 02:09:38;;;;;;;10.25;4.05;;;19.00;92.60;;;;;;5112103;28;20089;-77
2022/08/03 02:12:09;;;;;;;12.32;5.22;;;18.90;92.50;;;;;;5111950;28;20119;-77
2022/08/03 02:14:38;;;;;;;9.05;4.28;;;18.90;92.50;;;;;;5112093;28;20054;-76
2022/08/03 02:17:05;;;;;;;10.73;4.72;;;18.90;92.60;;;;;;5111869;28;20119;-77
2022/08/03 02:19:33;;;;;;;11.07;4.63;;;18.90;92.50;;;;;;5112203;28;20097;-74
2022/08/03 02:21:59;;;;;;;13.82;5.22;;;18.80;92.60;;;;;;5094749;28;20036;-75
2022/08/03 02:24:25;;;;;;;13.02;4.90;;;18.80;92.60;;;;;;5112080;28;20365;-76
2022/08/03 02:26:54;;;;;;;11.82;4.53;;;18.90;93.40;;;;;;5111964;28;20040;-76
2022/08/03 02:29:23;;;;;;;8.85;4.93;;;18.80;93.50;;;;;;5111730;28;20108;-75
2022/08/03 02:31:50;;;;;;;15.60;5.28;;;18.80;93.30;;;;;;5111588;28;20044;-76
2022/08/03 02:34:17;;;;;;;9.63;4.72;;;18.90;93.90;;;;;;5112765;28;20055;-77
2022/08/03 02:36:48;;;;;;;8.57;4.28;;;18.90;93.50;;;;;;5081226;28;20043;-73
2022/08/03 02:39:19;;;;;;;10.35;4.43;;;18.90;93.50;;;;;;5115193;28;20079;-78
2022/08/03 02:41:51;;;;;;;11.93;4.68;;;18.90;93.50;;;;;;5097821;28;20045;-77
2022/08/03 02:44:23;;;;;;;11.85;4.88;;;18.80;93.20;;;;;;5080475;28;20622;-77
2022/08/03 02:46:54;;;;;;;9.40;4.20;;;18.80;92.90;;;;;;5097728;28;20036;-77
2022/08/03 02:49:21;;;;;;;11.25;5.03;;;18.70;92.70;;;;;;5114796;28;20047;-78
2022/08/03 02:51:47;;;;;;;10.18;4.55;;;18.70;92.60;;;;;;5114755;28;20136;-78
2022/08/03 02:54:17;;;;;;;7.85;4.28;;;18.60;92.90;;;;;;5097905;28;20475;-78
2022/08/03 02:56:45;;;;;;;13.18;4.85;;;18.60;93.30;;;;;;5114761;28;20503;-79
2022/08/03 02:59:12;;;;;;;10.85;4.43;;;18.50;93.50;;;;;;5097505;28;20487;-78
2022/08/03 03:01:38;;;;;;;14.52;5.85;;;18.50;93.50;;;;;;5114426;28;20071;-74
2022/08/03 03:04:05;;;;;;;11.90;4.47;;;18.60;93.90;;;;;;5097625;28;20396;-74
2022/08/03 03:06:31;;;;;;;16.92;5.55;;;18.50;93.70;;;;;;5114346;28;20089;-75
2022/08/03 03:08:58;;;;;;;9.55;4.47;;;18.60;93.30;;;;;;5097335;28;20081;-79
2022/08/03 03:11:25;;;;;;;9.18;4.35;;;18.60;93.20;;;;;;5080513;28;20493;-74
2022/08/03 03:13:52;;;;;;;12.80;4.20;;;18.60;93.30;;;;;;5080648;28;20422;-76
2022/08/03 03:16:19;;;;;;;10.75;4.40;;;18.60;93.50;;;;;;5080472;28;20463;-76
2022/08/03 03:18:48;;;;;;;9.82;4.00;;;18.60;94.30;;;;;;5114395;28;20101;-78
2022/08/03 03:21:18;;;;;;;14.10;4.68;;;18.50;94.00;;;;;;5114008;28;20125;-74
2022/08/03 03:23:45;;;;;;;11.88;4.03;;;18.50;93.90;;;;;;5114000;28;20086;-79
2022/08/03 03:26:13;;;;;;;9.70;4.50;;;18.50;94.10;;;;;;5113977;28;20092;-77
2022/08/03 03:28:39;;;;;;;12.23;4.65;;;18.50;94.00;;;;;;5114413;28;20036;-76
2022/08/03 03:31:06;;;;;;;11.77;4.63;;;18.50;93.60;;;;;;5096954;28;20048;-75
2022/08/03 03:33:36;;;;;;;11.43;5.05;;;18.50;93.90;;;;;;5113915;28;20035;-74
2022/08/03 03:36:03;;;;;;;12.48;5.13;;;18.50;94.00;;;;;;5113543;28;20191;-74
2022/08/03 03:38:30;;;;;;;13.30;4.55;;;18.50;94.10;;;;;;5114012;28;20056;-75
2022/08/03 03:40:56;;;;;;;13.95;4.13;;;18.50;93.70;;;;;;5113688;28;20172;-74
2022/08/03 03:43:23;;;;;;;10.43;4.72;;;18.60;94.10;;;;;;5096578;28;20118;-75
2022/08/03 03:45:51;;;;;;;11.88;5.07;;;18.60;94.40;;;;;;5096842;28;20418;-75
2022/08/03 03:48:18;;;;;;;10.82;4.63;;;18.50;94.50;;;;;;5096412;28;20040;-73
2022/08/03 03:50:44;;;;;;;11.23;4.93;;;18.50;94.30;;;;;;5096645;28;20433;-74
2022/08/03 03:53:12;;;;;;;16.08;5.60;;;18.50;94.60;;;;;;5113193;28;20053;-77
2022/08/03 03:55:38;;;;;;;8.20;4.63;;;18.50;94.20;;;;;;5095349;28;20674;-76
2022/08/03 03:58:04;;;;;;;11.63;4.03;;;18.50;94.40;;;;;;5113081;28;20181;-74
2022/08/03 04:00:30;;;;;;;13.50;4.63;;;18.50;94.40;;;;;;5079215;28;20075;-76
2022/08/03 04:02:56;;;;;;;14.95;4.78;;;18.50;94.20;;;;;;5113217;28;20108;-74
2022/08/03 04:11:20;;;;;;;13.02;5.25;;;18.50;94.20;;;;;;5113193;28;20051;-77
2022/08/03 04:13:50;;;;;;;11.30;4.57;;;18.50;94.00;;;;;;5096117;28;20035;-78
2022/08/03 04:16:20;;;;;;;9.52;4.18;;;18.50;94.00;;;;;;5113235;28;20036;-73
2022/08/03 04:18:50;;;;;;;12.63;4.32;;;18.50;94.00;;;;;;5095998;28;20051;-75
2022/08/03 04:21:19;;;;;;;12.95;4.60;;;18.40;94.00;;;;;;5096247;28;20506;-77
2022/08/03 04:23:48;;;;;;;12.10;4.00;;;18.50;93.90;;;;;;5112890;28;20088;-74
2022/08/03 04:26:19;;;;;;;12.88;4.20;;;18.50;93.90;;;;;;5112999;28;20040;-74
2022/08/03 04:28:48;;;;;;;14.02;5.45;;;18.50;93.90;;;;;;5113131;28;20031;-78
2022/08/03 04:31:15;;;;;;;9.43;4.10;;;18.50;94.00;;;;;;5095784;28;20036;-75
2022/08/03 04:33:43;;;;;;;8.95;3.50;;;18.40;94.10;;;;;;5095714;28;20054;-74
2022/08/03 04:36:13;;;;;;;16.60;4.30;;;18.40;93.90;;;;;;5078664;28;20428;-74
2022/08/03 04:38:51;;;;;;;9.30;4.03;;;18.40;94.40;;;;;;5095618;28;20136;-76
2022/08/03 04:41:18;;;;;;;14.48;4.80;;;18.40;94.20;;;;;;5112553;28;20036;-76
2022/08/03 04:43:45;;;;;;;11.40;4.45;;;18.50;94.60;;;;;;5112665;28;20118;-76
2022/08/03 04:46:11;;;;;;;11.43;4.15;;;18.40;94.70;;;;;;5095437;28;20495;-75
2022/08/03 04:48:38;;;;;;;11.73;4.65;;;18.40;94.40;;;;;;5095524;28;20043;-78
2022/08/03 04:51:03;;;;;;;12.82;4.63;;;18.50;94.00;;;;;;5095461;28;20047;-74
2022/08/03 04:53:30;;;;;;;11.30;4.45;;;18.50;94.30;;;;;;5112338;28;20047;-78
2022/08/03 04:56:04;;;;;;;11.43;4.90;;;18.50;94.70;;;;;;5112605;28;20460;-77
2022/08/03 04:58:30;;;;;;;19.83;5.40;;;18.60;95.20;;;;;;5095396;28;20126;-75
2022/08/03 05:00:55;;;;;;;12.13;4.55;;;18.70;95.00;;;;;;5112599;28;20082;-75
2022/08/03 05:03:21;;;;;;;13.10;4.63;;;18.70;95.30;;;;;;5112201;28;20487;-75
2022/08/03 05:05:46;;;;;;;15.18;5.05;;;18.80;95.40;;;;;;5112041;28;20074;-78
2022/08/03 05:08:12;;;;;;;10.25;4.60;;;18.80;95.20;;;;;;5112319;28;20050;-75
2022/08/03 05:10:38;;;;;;;15.70;4.40;;;19.00;95.50;;;;;;5112466;28;20084;-78
2022/08/03 05:13:03;;;;;;;15.32;5.35;;;19.00;95.50;;;;;;5112159;28;20043;-76
2022/08/03 05:15:29;;;;;;;12.88;4.70;;;19.00;95.40;;;;;;5112324;28;20055;-77
2022/08/03 05:17:55;;;;;;;18.42;4.88;;;19.10;95.20;;;;;;5112126;28;20045;-75
2022/08/03 05:20:21;;;;;;;13.00;4.40;;;19.10;95.40;;;;;;5112097;28;20051;-75
2022/08/03 05:22:46;;;;;;;8.00;4.18;;;19.20;95.20;;;;;;5112112;28;20043;-75
2022/08/03 05:25:12;;;;;;;14.63;4.30;;;19.20;95.10;;;;;;5112254;28;20361;-76
2022/08/03 05:27:38;;;;;;;19.45;4.88;;;19.30;95.00;;;;;;5078241;28;20418;-78
2022/08/03 05:30:04;;;;;;;12.57;4.57;;;19.40;95.20;;;;;;5078216;28;20046;-77
2022/08/03 05:32:30;;;;;;;14.02;4.03;;;19.40;94.80;;;;;;5111958;28;20122;-74
2022/08/03 05:34:55;;;;;;;9.80;3.95;;;19.40;94.80;;;;;;5111715;28;20142;-74
2022/08/03 05:37:22;;;;;;;10.88;4.00;;;19.50;94.90;;;;;;5112009;28;20120;-75
2022/08/03 05:39:48;;;;;;;14.68;4.70;;;19.50;94.60;;;;;;5111923;28;20487;-77
2022/08/03 05:42:15;;;;;;;10.75;4.93;;;19.60;94.10;;;;;;5111768;28;20039;-76
2022/08/03 05:44:41;;;;;;;12.68;4.10;;;19.70;94.60;;;;;;5095107;28;20071;-76
2022/08/03 05:47:06;;;;;;;16.52;4.80;;;19.70;94.20;;;;;;5111819;28;20514;-78
2022/08/03 05:49:32;;;;;;;13.63;4.60;;;19.70;93.90;;;;;;5078075;28;20035;-78
2022/08/03 05:51:58;;;;;;;13.38;4.10;;;19.80;94.10;;;;;;5112021;28;20044;-75
2022/08/03 05:54:23;;;;;;;14.65;4.25;;;19.80;94.10;;;;;;5095111;28;20046;-77
2022/08/03 05:56:49;;;;;;;9.88;4.35;;;19.90;93.90;;;;;;5061242;28;20525;-77
2022/08/03 05:59:15;;;;;;;16.13;4.53;;;19.90;93.90;;;;;;5094733;28;20066;-75
2022/08/03 06:01:40;;;;;;;9.45;4.18;;;20.00;93.70;;;;;;5094875;28;20376;-76
2022/08/03 06:04:06;;;;;;;15.45;4.53;;;20.00;93.70;;;;;;5077964;28;20567;-78
2022/08/03 06:06:32;;;;;;;11.50;4.97;;;20.10;93.80;;;;;;5111602;28;20140;-76
2022/08/03 06:08:58;;;;;;;20.10;4.72;;;20.10;93.50;;;;;;5111928;28;20062;-76
2022/08/03 06:11:23;;;;;;;16.60;4.53;;;20.10;93.30;;;;;;5111607;28;20035;-75
2022/08/03 06:13:49;;;;;;;18.02;4.75;;;20.20;93.20;;;;;;5111578;28;20134;-75
2022/08/03 06:16:15;;;;;;;12.05;4.22;;;20.20;93.10;;;;;;5077726;28;20055;-74
2022/08/03 06:18:41;;;;;;;15.57;5.22;;;20.30;92.90;;;;;;5113458;28;20097;-74
2022/08/03 06:21:06;;;;;;;14.43;4.63;;;20.40;92.70;;;;;;5115253;28;20088;-78
2022/08/03 06:23:32;;;;;;;20.40;6.20;;;20.50;92.50;;;;;;5115021;28;20044;-77
2022/08/03 06:25:58;;;;;;;20.08;5.53;;;20.50;92.40;;;;;;5115390;28;20044;-74
2022/08/03 06:28:23;;;;;;;15.40;4.95;;;20.50;92.30;;;;;;5115153;28;20494;-75
2022/08/03 06:30:49;;;;;;;17.45;4.88;;;20.60;92.20;;;;;;5115411;28;20046;-79
2022/08/03 06:33:15;;;;;;;15.88;4.82;;;20.70;92.10;;;;;;5115107;28;20039;-76
2022/08/03 06:35:41;;;;;;;12.00;4.85;;;20.70;91.80;;;;;;5114818;28;20060;-77
2022/08/03 06:38:07;;;;;;;14.45;4.60;;;20.80;91.50;;;;;;5081134;28;20059;-76
2022/08/03 06:40:38;;;;;;;13.65;5.32;;;20.80;91.40;;;;;;5115376;28;20044;-76
2022/08/03 06:43:05;;;;;;;16.75;5.13;;;20.90;91.20;;;;;;5114880;28;20043;-77
2022/08/03 06:45:32;;;;;;;13.45;5.28;;;20.90;90.60;;;;;;5097769;28;20491;-77
2022/08/03 06:48:06;;;;;;;12.30;4.18;;;20.90;90.50;;;;;;5080861;28;20043;-75
2022/08/03 06:50:33;;;;;;;17.67;4.70;;;21.00;90.70;;;;;;5098118;28;20051;-77
2022/08/03 06:52:59;;;;;;;16.65;6.30;;;21.00;90.50;;;;;;5097895;28;20070;-78
2022/08/03 06:55:25;;;;;;;16.75;6.30;;;21.10;90.40;;;;;;5114581;28;20039;-76
2022/08/03 06:57:51;;;;;;;13.77;5.75;;;21.20;90.10;;;;;;5097849;28;20533;-76
2022/08/03 07:00:17;;;;;;;13.32;4.82;;;21.20;89.80;;;;;;5097513;28;20051;-75
2022/08/03 07:02:43;;;;;;;16.92;6.13;;;21.20;89.90;;;;;;5114448;28;20044;-76
2022/08/03 07:05:10;;;;;;;14.40;5.55;;;21.30;89.80;;;;;;5114273;28;20043;-75
2022/08/03 07:07:36;;;;;;;13.15;5.32;;;21.40;89.60;;;;;;5114672;28;20066;-76
2022/08/03 07:10:04;;;;;;;14.18;4.70;;;21.50;88.60;;;;;;5114607;28;20044;-74
2022/08/03 07:12:30;;;;;;;16.25;4.97;;;21.60;88.50;;;;;;5080453;28;20047;-76
2022/08/03 07:14:58;;;;;;;20.17;5.20;;;21.60;88.30;;;;;;5080312;28;20043;-76
2022/08/03 07:17:23;;;;;;;14.25;5.57;;;21.60;88.30;;;;;;5097355;28;20047;-78
2022/08/03 07:19:49;;;;;;;10.93;5.18;;;21.70;88.00;;;;;;5080493;28;20373;-76
2022/08/03 07:22:15;;;;;;;14.73;5.35;;;21.80;88.00;;;;;;5114013;28;20124;-75
2022/08/03 07:24:40;;;;;;;13.13;5.32;;;21.90;87.70;;;;;;5080199;28;20039;-77
2022/08/03 07:27:07;;;;;;;20.15;6.38;;;21.90;87.30;;;;;;5114271;28;20043;-73
2022/08/03 07:29:34;;;;;;;15.10;6.10;;;22.00;87.10;;;;;;5112589;28;20071;-75
2022/08/03 07:32:00;;;;;;;17.02;5.32;;;22.00;87.30;;;;;;5097038;28;20050;-76
2022/08/03 07:34:26;;;;;;;15.75;5.75;;;22.00;87.10;;;;;;5096634;28;20063;-77
2022/08/03 07:36:51;;;;;;;16.88;5.88;;;22.00;86.90;;;;;;5096767;28;20059;-79
2022/08/03 07:39:17;;;;;;;13.18;5.03;;;22.10;86.70;;;;;;5113749;28;20040;-78
2022/08/03 07:41:43;;;;;;;14.32;5.70;;;22.30;86.50;;;;;;5113637;28;20047;-78
2022/08/03 07:44:09;;;;;;;13.85;4.95;;;22.40;86.10;;;;;;5114039;28;20027;-76
2022/08/03 07:46:34;;;;;;;18.98;6.75;;;22.50;86.00;;;;;;5079735;28;20051;-77
2022/08/03 07:49:00;;;;;;;17.23;6.43;;;22.50;85.20;;;;;;5080060;28;20039;-77
2022/08/03 07:51:26;;;;;;;17.02;6.45;;;22.50;85.30;;;;;;5113532;28;20095;-77
2022/08/03 07:53:51;;;;;;;16.05;5.72;;;22.50;85.40;;;;;;5079915;28;20081;-75
2022/08/03 07:56:18;;;;;;;17.17;6.95;;;22.60;85.40;;;;;;5113367;28;20488;-75
2022/08/03 07:58:44;;;;;;;18.77;7.20;;;22.70;85.40;;;;;;5113393;28;20044;-75
2022/08/03 08:01:09;;;;;;;16.35;5.75;;;22.80;84.70;;;;;;5113301;28;20458;-76
2022/08/03 08:03:35;;;;;;;19.08;7.22;;;22.80;84.80;;;;;;5113129;28;20040;-78
2022/08/03 08:06:01;;;;;;;14.93;5.78;;;22.80;84.50;;;;;;5096174;28;20093;-74
2022/08/03 08:08:26;;;;;;;23.10;6.30;;;22.90;84.50;;;;;;5079297;28;20039;-76
2022/08/03 08:10:52;;;;;;;19.27;7.32;;;22.90;84.30;;;;;;5113108;28;20092;-75
2022/08/03 08:13:18;;;;;;;23.60;8.73;;;23.10;83.80;;;;;;5113412;28;20043;-76
2022/08/03 08:15:43;;;;;;;15.55;7.05;;;23.10;83.40;;;;;;5113185;28;20051;-76
2022/08/03 08:18:09;;;;;;;17.65;7.97;;;23.20;83.60;;;;;;5113303;28;20055;-76
2022/08/03 08:20:38;;;;;;;18.25;7.28;;;23.30;82.70;;;;;;5113275;28;20483;-74
2022/08/03 08:23:06;;;;;;;17.10;6.53;;;23.40;83.10;;;;;;5112973;28;20126;-76
2022/08/03 08:25:32;;;;;;;18.92;6.78;;;23.50;82.90;;;;;;5095946;28;20042;-75
2022/08/03 08:28:01;;;;;;;18.17;7.40;;;23.60;82.50;;;;;;5113083;28;20051;-76
2022/08/03 08:30:27;;;;;;;23.00;8.70;;;23.60;82.10;;;;;;5113110;28;20066;-76
2022/08/03 08:32:52;;;;;;;16.73;7.45;;;23.70;82.10;;;;;;5112767;28;20047;-79
2022/08/03 08:35:19;;;;;;;17.17;7.38;;;23.70;82.20;;;;;;5072013;28;20053;-74
2022/08/03 08:37:45;;;;;;;20.17;8.65;;;23.60;82.00;;;;;;5055466;28;20045;-77
2022/08/03 08:40:12;;;;;;;16.38;8.73;;;23.70;81.70;;;;;;5088858;28;20569;-76
2022/08/03 08:42:39;;;;;;;17.33;9.57;;;23.60;81.80;;;;;;5088551;28;20513;-76
2022/08/03 08:45:07;;;;;;;20.67;8.90;;;23.60;81.60;;;;;;5088795;28;20037;-75
2022/08/03 08:47:39;;;;;;;17.83;9.15;;;23.60;81.80;;;;;;5055613;28;20079;-77
2022/08/03 08:50:07;;;;;;;20.50;9.30;;;23.60;81.80;;;;;;5088864;28;20130;-75
2022/08/03 08:52:34;;;;;;;16.38;10.45;;;23.70;81.80;;;;;;5055475;28;20097;-75
2022/08/03 08:55:04;;;;;;;16.85;10.77;;;23.60;81.70;;;;;;5088929;28;20062;-76
2022/08/03 08:57:34;;;;;;;15.48;9.95;;;23.60;80.50;;;;;;5088740;28;20044;-77
2022/08/03 09:00:01;;;;;;;17.85;10.18;;;23.60;81.40;;;;;;5055270;28;20048;-76
2022/08/03 09:02:29;;;;;;;18.88;9.90;;;23.70;81.60;;;;;;5088657;28;20047;-76
2022/08/03 09:04:56;;;;;;;23.13;12.13;;;23.70;81.40;;;;;;5071706;28;20072;-76
2022/08/03 09:07:21;;;;;;;22.67;12.07;;;23.70;81.40;;;;;;5088553;28;20041;-75
2022/08/03 09:09:48;;;;;;;18.67;12.20;;;23.70;81.40;;;;;;5055029;28;20048;-76
2022/08/03 09:12:14;;;;;;;21.75;11.70;;;23.70;81.30;;;;;;5088491;28;20131;-77
2022/08/03 09:14:40;;;;;;;21.17;12.52;;;23.70;81.10;;;;;;5054987;28;20127;-78
2022/08/03 09:17:06;;;;;;;26.58;13.05;;;23.60;80.90;;;;;;5088418;28;20056;-77
2022/08/03 09:19:33;;;;;;;20.98;13.50;;;23.60;80.80;;;;;;5088499;28;20041;-75
2022/08/03 09:22:14;;;;;;;20.90;13.50;;;23.50;81.00;;;;;;5054854;28;20049;-76
2022/08/03 09:24:57;;;;;;;18.52;12.57;;;23.50;80.60;;;;;;5088533;28;20394;-79
2022/08/03 09:27:23;;;;;;;21.33;12.98;;;23.70;80.70;;;;;;5088390;28;20032;-74
2022/08/03 09:29:50;;;;;;;20.83;12.55;;;23.80;80.90;;;;;;5088608;28;20072;-77
2022/08/03 09:32:23;;;;;;;27.85;13.65;;;23.70;80.90;;;;;;5088618;28;20114;-78
2022/08/03 09:34:51;;;;;;;22.80;12.10;;;23.90;80.40;;;;;;5060410;28;20087;-74
2022/08/03 09:37:19;;;;;;;26.02;14.30;;;24.00;80.40;;;;;;5091526;28;20442;-77
2022/08/03 09:39:45;;;;;;;22.75;13.65;;;24.10;78.70;;;;;;5091793;28;20093;-77
2022/08/03 09:42:14;;;;;;;25.20;14.82;;;24.00;78.70;;;;;;5091451;28;20090;-77
2022/08/03 09:44:42;;;;;;;29.48;13.98;;;24.00;79.30;;;;;;5108397;28;20044;-78
2022/08/03 09:47:09;;;;;;;23.63;14.80;;;24.00;79.40;;;;;;5091483;28;20055;-75
2022/08/03 09:49:36;;;;;;;20.83;13.68;;;23.80;79.60;;;;;;5108421;28;20116;-80
2022/08/03 09:52:14;;;;;;;24.77;14.07;;;23.90;79.80;;;;;;5091451;28;20500;-75
2022/08/03 09:54:41;;;;;;;24.95;13.10;;;23.90;80.10;;;;;;5095053;28;20044;-74
2022/08/03 09:57:06;;;;;;;22.80;13.98;;;24.10;79.90;;;;;;5061799;28;20044;-77
2022/08/03 09:59:33;;;;;;;24.05;14.60;;;23.90;79.60;;;;;;5078926;28;20391;-77
2022/08/03 10:01:59;;;;;;;32.25;14.38;;;23.90;79.80;;;;;;5095157;28;20044;-76
2022/08/03 10:04:25;;;;;;;24.17;15.05;;;23.80;80.30;;;;;;5095540;28;20032;-79
2022/08/03 10:07:08;;;;;;;23.00;14.77;;;23.80;80.20;;;;;;5078451;28;20432;-75
2022/08/03 10:09:35;;;;;;;27.48;14.85;;;23.90;79.90;;;;;;5061765;28;20044;-74
2022/08/03 10:12:11;;;;;;;24.25;14.02;;;24.00;79.70;;;;;;5095403;28;20048;-77
2022/08/03 10:14:40;;;;;;;21.70;12.88;;;24.20;79.10;;;;;;5111887;28;20059;-77
2022/08/03 10:17:07;;;;;;;25.17;15.45;;;24.40;79.00;;;;;;5095002;28;20089;-77
2022/08/03 10:19:33;;;;;;;25.92;12.55;;;24.30;78.90;;;;;;5094972;28;20040;-78
2022/08/03 10:22:11;;;;;;;29.95;14.55;;;24.40;78.70;;;;;;5094882;28;20460;-77
2022/08/03 10:24:38;;;;;;;21.45;13.50;;;24.40;78.70;;;;;;5094929;28;20078;-75
2022/08/03 10:27:08;;;;;;;24.85;14.23;;;24.50;78.70;;;;;;5094790;28;20044;-75
2022/08/03 10:29:37;;;;;;;32.03;14.65;;;24.60;78.30;;;;;;5078224;28;20040;-77
2022/08/03 10:32:27;;;;;;;23.98;12.98;;;24.60;78.20;;;;;;5077901;28;20047;-77
2022/08/03 10:35:18;;;;;;;28.15;13.98;;;24.90;78.20;;;;;;5086214;28;20495;-75
2022/08/03 10:37:55;;;;;;;24.17;13.75;;;25.00;77.30;;;;;;5086676;28;20442;-76
2022/08/03 10:40:22;;;;;;;24.35;13.90;;;25.20;76.70;;;;;;5094781;28;20086;-78
2022/08/03 10:42:53;;;;;;;24.92;13.45;;;25.10;76.80;;;;;;5077841;28;20048;-78
2022/08/03 10:45:22;;;;;;;19.60;13.60;;;25.40;76.70;;;;;;5094404;28;20500;-77
2022/08/03 10:47:51;;;;;;;24.33;12.63;;;25.30;76.70;;;;;;5094626;28;20369;-77
2022/08/03 10:50:18;;;;;;;23.67;12.23;;;25.20;76.10;;;;;;5094431;28;20078;-76
2022/08/03 10:52:58;;;;;;;17.80;13.18;;;25.30;76.40;;;;;;5094363;28;20048;-76
2022/08/03 10:58:39;;;;;;;25.55;13.07;;;24.70;77.60;;;;;;5111230;28;20047;-76
2022/08/03 11:01:07;;;;;;;21.20;12.73;;;24.80;77.30;;;;;;5094148;28;20047;-77
2022/08/03 11:03:53;;;;;;;26.70;13.20;;;24.90;77.30;;;;;;5093680;28;20044;-76
2022/08/03 11:06:24;;;;;;;21.88;13.48;;;25.00;77.20;;;;;;5079900;28;20042;-78
2022/08/03 11:09:08;;;;;;;21.52;12.23;;;24.90;77.00;;;;;;5094206;28;20047;-75
2022/08/03 11:11:38;;;;;;;30.45;15.45;;;25.00;77.00;;;;;;5094316;28;20039;-78
2022/08/03 11:14:08;;;;;;;27.30;12.95;;;25.00;76.70;;;;;;5111221;28;20063;-75
2022/08/03 11:17:01;;;;;;;22.10;14.20;;;25.00;76.70;;;;;;5093824;28;20047;-76
2022/08/03 11:19:52;;;;;;;26.15;13.35;;;24.90;76.50;;;;;;5090708;28;20048;-75
2022/08/03 11:22:18;;;;;;;25.58;14.55;;;25.00;76.90;;;;;;5093887;28;20094;-78
2022/08/03 11:24:52;;;;;;;20.42;12.32;;;24.70;77.20;;;;;;5076670;28;20484;-77
2022/08/03 11:27:18;;;;;;;;;;;24.90;77.10;;;;;;5094360;28;20369;-80
2022/08/03 11:30:02;;;;;;;18.13;10.15;;;25.00;76.80;;;;;;5093490;28;19927;-77
2022/08/03 11:32:36;;;;;;;19.67;12.35;;;25.10;76.50;;;;;;5093917;28;20102;-76
2022/08/03 11:35:18;;;;;;;22.70;10.27;;;25.10;75.80;;;;;;5090083;28;20064;-76
2022/08/03 11:37:56;;;;;;;22.40;10.13;;;25.20;75.40;;;;;;5073595;28;20467;-77
2022/08/03 11:40:51;;;;;;;21.27;8.50;;;25.20;74.80;;;;;;5073500;28;20080;-76
2022/08/03 11:43:44;;;;;;;20.85;10.65;;;25.30;74.70;;;;;;5073317;28;20071;-76
2022/08/03 11:46:16;;;;;;;20.92;11.70;;;25.40;74.50;;;;;;5084658;28;20087;-77
2022/08/03 11:48:47;;;;;;;19.40;9.65;;;25.40;74.80;;;;;;5056700;28;20149;-77
2022/08/03 11:51:21;;;;;;;20.83;10.05;;;25.50;74.50;;;;;;5072962;28;20075;-77
2022/08/03 11:53:50;;;;;;;;;;;25.70;74.50;;;;;;5090161;28;20086;-76
2022/08/03 11:56:16;;;;;;;17.38;8.40;;;26.00;73.60;;;;;;5073056;28;20422;-75
2022/08/03 11:58:52;;;;;;;24.25;10.73;;;26.30;72.90;;;;;;5072862;28;20044;-76
2022/08/03 12:01:19;;;;;;;26.70;10.95;;;26.60;71.60;;;;;;5089907;28;20037;-75
2022/08/03 12:03:45;;;;;;;18.45;10.18;;;26.60;71.20;;;;;;5089572;28;20044;-75
2022/08/03 12:06:13;;;;;;;25.90;12.15;;;26.30;70.60;;;;;;5089455;28;20086;-76
2022/08/03 12:08:40;;;;;;;22.55;10.20;;;26.40;71.00;;;;;;5089520;28;20033;-75
2022/08/03 12:11:08;;;;;;;19.58;8.77;;;26.60;70.90;;;;;;5089809;28;20036;-76
2022/08/03 12:13:46;;;;;;;22.02;9.85;;;26.60;70.20;;;;;;5089781;28;20041;-76
2022/08/03 12:16:32;;;;;;;21.67;9.48;;;26.70;70.50;;;;;;5071824;28;20048;-75
2022/08/03 12:19:00;;;;;;;20.75;10.18;;;26.60;70.60;;;;;;5072448;28;20492;-75
2022/08/03 12:21:27;;;;;;;17.50;8.70;;;26.40;71.00;;;;;;5089210;28;20099;-75
2022/08/03 12:24:11;;;;;;;23.60;9.25;;;26.50;71.00;;;;;;5089522;28;20393;-75
2022/08/03 12:26:48;;;;;;;14.27;9.23;;;26.60;69.50;;;;;;5072472;28;20488;-74
2022/08/03 12:29:21;;;;;;;23.05;9.57;;;26.60;69.80;;;;;;5089176;28;20515;-76
2022/08/03 12:31:48;;;;;;;20.90;9.93;;;26.70;70.20;;;;;;5072215;28;20052;-75
2022/08/03 12:34:14;;;;;;;19.02;9.50;;;26.80;70.20;;;;;;5073918;28;20170;-77
2022/08/03 12:36:54;;;;;;;16.77;8.48;;;27.00;69.40;;;;;;5112709;28;20088;-75
2022/08/03 12:39:27;;;;;;;15.63;8.90;;;27.20;68.30;;;;;;5096029;28;20052;-78
2022/08/03 12:41:53;;;;;;;18.00;8.40;;;27.10;68.80;;;;;;5095810;28;20507;-75
2022/08/03 12:44:33;;;;;;;17.73;8.80;;;27.10;69.10;;;;;;5095741;28;20047;-76
2022/08/03 12:47:00;;;;;;;19.35;10.13;;;27.10;69.20;;;;;;5112569;28;20035;-76
2022/08/03 12:49:26;;;;;;;17.35;9.13;;;27.10;68.00;;;;;;5078683;28;20136;-75
2022/08/03 12:51:52;;;;;;;20.17;9.32;;;27.00;68.40;;;;;;5112777;28;20065;-77
2022/08/03 12:54:20;;;;;;;15.73;9.13;;;27.10;68.00;;;;;;5112549;28;20554;-73